createdAt,value
2023-02-24T00:00:33.639Z,100.00
2023-02-24T00:03:10.806Z,100.00
2023-02-24T00:05:39.960Z,100.00
2023-02-24T00:08:07.482Z,100.00
2023-02-24T00:13:39.156Z,100.00
2023-02-24T00:16:07.512Z,100.00
2023-02-24T00:18:36.046Z,100.00
2023-02-24T00:21:08.102Z,100.00
2023-02-24T00:23:37.043Z,100.00
2023-02-24T00:26:06.573Z,100.00
2023-02-24T00:28:34.476Z,100.00
2023-02-24T00:31:07.103Z,100.00
2023-02-24T00:33:36.368Z,100.00
2023-02-24T00:36:08.754Z,100.00
2023-02-24T00:38:36.887Z,100.00
2023-02-24T00:41:12.277Z,100.00
2023-02-24T00:46:45.516Z,100.00
2023-02-24T00:49:17.791Z,100.00
2023-02-24T00:51:49.149Z,100.00
2023-02-24T00:54:18.801Z,100.00
2023-02-24T00:56:47.690Z,100.00
2023-02-24T00:59:18.527Z,100.00
2023-02-24T01:01:49.776Z,100.00
2023-02-24T01:04:19.056Z,100.00
2023-02-24T01:06:48.558Z,100.00
2023-02-24T01:09:18.961Z,100.00
2023-02-24T01:12:17.634Z,100.00
2023-02-24T01:14:47.508Z,100.00
2023-02-24T01:17:18.141Z,100.00
2023-02-24T01:19:48.920Z,100.00
2023-02-24T01:22:19.647Z,100.00
2023-02-24T01:24:48.192Z,100.00
2023-02-24T01:30:04.847Z,100.00
2023-02-24T01:32:33.805Z,100.00
2023-02-24T01:35:01.418Z,100.00
2023-02-24T01:37:29.783Z,100.00
2023-02-24T01:42:49.244Z,100.00
2023-02-24T01:45:28.489Z,100.00
2023-02-24T01:48:02.079Z,100.00
2023-02-24T01:53:31.804Z,100.00
2023-02-24T01:56:00.427Z,100.00
2023-02-24T01:58:30.374Z,100.00
2023-02-24T02:00:58.096Z,100.00
2023-02-24T02:06:11.041Z,100.00
2023-02-24T02:08:41.338Z,100.00
2023-02-24T02:14:09.849Z,100.00
2023-02-24T02:16:49.390Z,100.00
2023-02-24T02:19:38.041Z,100.00
2023-02-24T02:22:17.412Z,100.00
2023-02-24T02:24:48.256Z,100.00
2023-02-24T02:27:23.404Z,100.00
2023-02-24T02:30:43.929Z,100.00
2023-02-24T02:33:51.800Z,100.00
2023-02-24T02:36:23.938Z,100.00
2023-02-24T02:38:57.348Z,100.00
2023-02-24T02:44:32.143Z,100.00
2023-02-24T02:47:02.887Z,100.00
2023-02-24T02:49:35.340Z,100.00
2023-02-24T02:52:07.293Z,100.00
2023-02-24T02:57:26.283Z,100.00
2023-02-24T02:59:56.854Z,100.00
2023-02-24T03:02:28.401Z,100.00
2023-02-24T03:05:00.649Z,100.00
2023-02-24T03:07:31.802Z,100.00
2023-02-24T03:10:03.820Z,100.00
2023-02-24T03:12:32.858Z,100.00
2023-02-24T03:15:04.732Z,100.00
2023-02-24T03:20:49.043Z,100.00
2023-02-24T03:23:18.263Z,100.00
2023-02-24T03:25:49.815Z,100.00
2023-02-24T03:28:22.518Z,100.00
2023-02-24T03:30:54.563Z,100.00
2023-02-24T03:33:26.351Z,100.00
2023-02-24T03:36:01.469Z,100.00
2023-02-24T03:38:32.166Z,100.00
2023-02-24T03:40:59.971Z,100.00
2023-02-24T03:43:33.160Z,100.00
2023-02-24T03:46:01.654Z,100.00
2023-02-24T03:48:30.462Z,100.00
2023-02-24T03:51:00.668Z,100.00
2023-02-24T03:53:52.075Z,100.00
2023-02-24T03:56:29.709Z,100.00
2023-02-24T03:59:12.715Z,100.00
2023-02-24T04:01:46.513Z,100.00
2023-02-24T04:04:18.961Z,100.00
2023-02-24T04:10:09.136Z,100.00
2023-02-24T04:12:42.649Z,100.00
2023-02-24T04:15:15.231Z,100.00
2023-02-24T04:17:46.227Z,99.36
2023-02-24T04:23:08.599Z,99.20
2023-02-24T04:25:40.189Z,100.00
2023-02-24T04:28:08.754Z,99.12
2023-02-24T04:30:40.362Z,99.14
2023-02-24T04:33:09.726Z,99.10
2023-02-24T04:35:38.044Z,98.85
2023-02-24T04:38:05.716Z,98.91
2023-02-24T04:43:37.032Z,98.09
2023-02-24T04:46:07.983Z,98.16
2023-02-24T04:48:35.812Z,99.47
2023-02-24T04:51:03.718Z,98.32
2023-02-24T04:56:33.694Z,99.39
2023-02-24T04:59:02.539Z,99.74
2023-02-24T05:01:31.131Z,98.76
2023-02-24T05:04:00.044Z,98.67
2023-02-24T05:09:22.232Z,99.04
2023-02-24T05:14:50.044Z,99.78
2023-02-24T05:17:18.649Z,99.92
2023-02-24T05:20:03.769Z,99.38
2023-02-24T05:22:31.189Z,99.53
2023-02-24T05:24:58.629Z,99.17
2023-02-24T05:27:27.953Z,99.29
2023-02-24T05:29:56.700Z,99.08
2023-02-24T05:32:25.210Z,99.15
2023-02-24T05:34:52.780Z,98.50
2023-02-24T05:37:20.442Z,98.11
2023-02-24T05:39:47.858Z,98.77
2023-02-24T05:42:15.727Z,98.79
2023-02-24T05:44:43.337Z,98.01
2023-02-24T05:47:12.297Z,97.96
2023-02-24T05:49:39.844Z,97.80
2023-02-24T05:52:09.148Z,98.88
2023-02-24T05:54:38.793Z,98.87
2023-02-24T05:57:08.307Z,98.35
2023-02-24T05:59:36.279Z,98.27
2023-02-24T06:02:09.270Z,98.09
2023-02-24T06:04:50.538Z,97.42
2023-02-24T06:07:21.915Z,96.45
2023-02-24T06:09:53.381Z,97.05
2023-02-24T06:12:21.975Z,96.71
2023-02-24T06:14:49.437Z,97.01
2023-02-24T06:17:18.307Z,96.11
2023-02-24T06:19:48.783Z,96.78
2023-02-24T06:22:19.003Z,96.75
2023-02-24T06:24:49.055Z,95.95
2023-02-24T06:30:10.200Z,96.13
2023-02-24T06:35:42.433Z,97.63
2023-02-24T06:38:09.962Z,98.08
2023-02-24T06:40:37.654Z,98.14
2023-02-24T06:43:05.075Z,97.62
2023-02-24T06:45:32.486Z,97.57
2023-02-24T06:48:00.174Z,97.90
2023-02-24T06:50:28.688Z,96.94
2023-02-24T06:53:00.517Z,97.05
2023-02-24T06:55:28.273Z,97.70
2023-02-24T06:57:57.812Z,97.23
2023-02-24T07:00:36.813Z,95.51
2023-02-24T07:03:14.711Z,96.89
2023-02-24T07:05:50.329Z,96.25
2023-02-24T07:08:22.688Z,94.72
2023-02-24T07:10:54.592Z,94.71
2023-02-24T07:13:22.610Z,94.39
2023-02-24T07:18:56.381Z,94.16
2023-02-24T07:21:25.246Z,93.86
2023-02-24T07:23:58.809Z,93.70
2023-02-24T07:26:30.202Z,93.56
2023-02-24T07:31:45.811Z,93.72
2023-02-24T07:34:14.867Z,93.36
2023-02-24T07:36:49.152Z,95.18
2023-02-24T07:39:19.174Z,92.49
2023-02-24T07:44:46.196Z,90.64
2023-02-24T07:47:15.560Z,92.12
2023-02-24T07:49:43.013Z,90.12
2023-02-24T07:52:11.379Z,89.88
2023-02-24T07:54:40.472Z,90.63
2023-02-24T07:57:13.136Z,89.82
2023-02-24T07:59:46.642Z,90.08
2023-02-24T08:05:17.846Z,88.92
2023-02-24T08:07:49.647Z,90.06
2023-02-24T08:10:25.556Z,89.11
2023-02-24T08:12:55.623Z,89.54
2023-02-24T08:15:24.899Z,88.97
2023-02-24T08:17:55.817Z,88.56
2023-02-24T08:20:25.726Z,89.56
2023-02-24T08:25:58.372Z,90.06
2023-02-24T08:31:28.737Z,88.39
2023-02-24T08:33:56.193Z,88.46
2023-02-24T08:36:25.980Z,88.18
2023-02-24T08:38:53.707Z,87.71
2023-02-24T08:44:27.113Z,90.40
2023-02-24T08:46:55.136Z,89.06
2023-02-24T08:49:24.737Z,88.14
2023-02-24T08:51:53.451Z,87.66
2023-02-24T08:54:27.089Z,86.92
2023-02-24T08:56:56.658Z,89.98
2023-02-24T09:02:29.417Z,90.20
2023-02-24T09:07:59.721Z,91.00
2023-02-24T09:10:28.413Z,90.62
2023-02-24T09:12:55.883Z,91.85
2023-02-24T09:15:25.438Z,92.83
2023-02-24T09:21:15.877Z,96.02
2023-02-24T09:26:48.718Z,96.18
2023-02-24T09:29:30.181Z,96.56
2023-02-24T09:32:04.467Z,96.95
2023-02-24T09:34:33.586Z,96.64
2023-02-24T09:37:03.801Z,97.33
2023-02-24T09:39:53.317Z,99.39
2023-02-24T09:42:33.210Z,100.00
2023-02-24T09:48:10.395Z,100.00
2023-02-24T09:53:52.413Z,100.00
2023-02-24T09:56:27.476Z,100.00
2023-02-24T09:59:00.757Z,100.00
2023-02-24T10:01:35.698Z,100.00
2023-02-24T10:04:20.296Z,100.00
2023-02-24T10:06:50.163Z,100.00
2023-02-24T10:09:26.808Z,100.00
2023-02-24T10:12:03.908Z,100.00
2023-02-24T10:14:43.686Z,100.00
2023-02-24T10:17:30.500Z,100.00
2023-02-24T10:22:53.604Z,100.00
2023-02-24T10:25:35.961Z,100.00
2023-02-24T10:28:08.582Z,100.00
2023-02-24T10:30:41.672Z,100.00
2023-02-24T10:33:20.400Z,100.00
2023-02-24T10:38:48.628Z,100.00
2023-02-24T10:41:17.908Z,100.00
2023-02-24T10:46:42.113Z,100.00
2023-02-24T10:49:16.110Z,100.00
2023-02-24T10:51:48.899Z,100.00
2023-02-24T10:54:34.183Z,100.00
2023-02-24T10:57:18.431Z,100.00
2023-02-24T11:00:09.848Z,100.00
2023-02-24T11:02:56.418Z,100.00
2023-02-24T11:08:39.874Z,100.00
2023-02-24T11:11:20.053Z,100.00
2023-02-24T11:17:07.928Z,100.00
2023-02-24T11:19:40.681Z,100.00
2023-02-24T11:22:09.086Z,100.00
2023-02-24T11:27:42.441Z,100.00
2023-02-24T11:30:18.437Z,100.00
2023-02-24T11:33:00.094Z,100.00
2023-02-24T11:35:32.539Z,100.00
2023-02-24T11:38:03.402Z,100.00
2023-02-24T11:40:34.868Z,100.00
2023-02-24T11:43:07.329Z,100.00
2023-02-24T11:45:38.001Z,100.00
2023-02-24T11:48:14.849Z,100.00
2023-02-24T11:53:52.236Z,100.00
2023-02-24T11:59:30.829Z,100.00
2023-02-24T12:02:05.522Z,100.00
2023-02-24T12:04:37.780Z,100.00
2023-02-24T12:07:07.826Z,100.00
2023-02-24T12:09:39.259Z,100.00
2023-02-24T12:12:13.371Z,100.00
2023-02-24T12:14:47.676Z,100.00
2023-02-24T12:17:18.804Z,100.00
2023-02-24T12:19:57.517Z,100.00
2023-02-24T12:22:28.464Z,100.00
2023-02-24T12:24:55.881Z,100.00
2023-02-24T12:27:34.421Z,100.00
2023-02-24T12:30:22.723Z,100.00
2023-02-24T12:33:00.278Z,100.00
2023-02-24T12:35:39.409Z,100.00
2023-02-24T12:38:19.502Z,100.00
2023-02-24T12:40:53.038Z,100.00
2023-02-24T12:46:14.706Z,100.00
2023-02-24T12:49:04.610Z,100.00
2023-02-24T12:51:37.545Z,100.00
2023-02-24T12:54:10.211Z,100.00
2023-02-24T12:56:44.244Z,100.00
2023-02-24T13:02:02.589Z,100.00
2023-02-24T13:04:37.678Z,100.00
2023-02-24T13:07:21.912Z,100.00
2023-02-24T13:12:55.561Z,100.00
2023-02-24T13:15:25.357Z,100.00
2023-02-24T13:17:55.783Z,100.00
2023-02-24T13:20:31.083Z,100.00
2023-02-24T13:23:01.138Z,100.00
2023-02-24T13:28:33.185Z,100.00
2023-02-24T13:31:03.298Z,100.00
2023-02-24T13:33:33.519Z,100.00
2023-02-24T13:36:13.480Z,100.00
2023-02-24T13:38:44.114Z,100.00
2023-02-24T13:41:24.119Z,100.00
2023-02-24T13:43:57.824Z,100.00
2023-02-24T13:46:27.078Z,100.00
2023-02-24T13:49:01.819Z,100.00
2023-02-24T13:51:59.102Z,100.00
2023-02-24T13:54:39.159Z,100.00
2023-02-24T13:57:17.944Z,100.00
2023-02-24T14:00:09.992Z,100.00
2023-02-24T14:02:42.755Z,100.00
2023-02-24T14:05:13.759Z,100.00
2023-02-24T14:07:41.555Z,100.00
2023-02-24T14:13:17.094Z,100.00
2023-02-24T14:15:46.196Z,100.00
2023-02-24T14:18:19.816Z,100.00
2023-02-24T14:20:47.278Z,100.00
2023-02-24T14:26:20.323Z,100.00
2023-02-24T14:28:54.970Z,100.00
2023-02-24T14:31:23.818Z,100.00
2023-02-24T14:33:55.785Z,100.00
2023-02-24T14:39:16.987Z,100.00
2023-02-24T14:41:44.803Z,100.00
2023-02-24T14:44:22.709Z,100.00
2023-02-24T14:46:52.243Z,100.00
2023-02-24T14:52:11.776Z,100.00
2023-02-24T14:54:44.766Z,100.00
2023-02-24T14:57:13.912Z,100.00
2023-02-24T14:59:47.270Z,100.00
2023-02-24T15:02:17.968Z,100.00
2023-02-24T15:07:51.773Z,100.00
2023-02-24T15:10:22.608Z,100.00
2023-02-24T15:12:51.675Z,100.00
2023-02-24T15:15:23.135Z,100.00
2023-02-24T15:17:54.539Z,100.00
2023-02-24T15:20:40.806Z,100.00
2023-02-24T15:23:26.275Z,100.00
2023-02-24T15:29:01.431Z,100.00
2023-02-24T15:34:29.292Z,100.00
2023-02-24T15:37:00.053Z,100.00
2023-02-24T15:39:29.415Z,100.00
2023-02-24T15:42:34.620Z,100.00
2023-02-24T15:45:03.333Z,100.00
2023-02-24T15:47:42.207Z,100.00
2023-02-24T15:53:09.039Z,100.00
2023-02-24T15:55:36.504Z,100.00
2023-02-24T15:58:05.072Z,100.00
2023-02-24T16:00:32.591Z,100.00
2023-02-24T16:03:01.363Z,100.00
2023-02-24T16:08:32.071Z,100.00
2023-02-24T16:10:59.896Z,100.00
2023-02-24T16:13:27.735Z,100.00
2023-02-24T16:15:56.221Z,100.00
2023-02-24T16:21:21.175Z,100.00
2023-02-24T16:26:51.670Z,100.00
2023-02-24T16:29:19.123Z,100.00
2023-02-24T16:31:46.870Z,100.00
2023-02-24T16:34:16.467Z,100.00
2023-02-24T16:36:45.353Z,100.00
2023-02-24T16:39:13.850Z,100.00
2023-02-24T16:41:41.436Z,100.00
2023-02-24T16:44:10.395Z,100.00
2023-02-24T16:49:29.308Z,100.00
2023-02-24T16:54:56.016Z,100.00
2023-02-24T16:57:25.550Z,100.00
2023-02-24T16:59:53.214Z,100.00
2023-02-24T17:02:23.079Z,100.00
2023-02-24T17:04:50.626Z,100.00
2023-02-24T17:10:19.428Z,100.00
2023-02-24T17:12:47.001Z,100.00
2023-02-24T17:15:16.970Z,100.00
2023-02-24T17:17:44.507Z,100.00
2023-02-24T17:23:04.934Z,100.00
2023-02-24T17:25:34.095Z,100.00
2023-02-24T17:28:01.558Z,100.00
2023-02-24T17:30:30.897Z,100.00
2023-02-24T17:32:58.425Z,100.00
2023-02-24T17:35:26.852Z,100.00
2023-02-24T17:40:58.341Z,100.00
2023-02-24T17:43:25.872Z,100.00
2023-02-24T17:45:53.601Z,100.00
2023-02-24T17:48:22.144Z,100.00
2023-02-24T17:50:49.912Z,100.00
2023-02-24T17:53:17.340Z,100.00
2023-02-24T17:56:01.623Z,100.00
2023-02-24T17:58:32.054Z,100.00
2023-02-24T18:01:01.735Z,100.00
2023-02-24T18:03:29.829Z,100.00
2023-02-24T18:09:09.806Z,100.00
2023-02-24T18:11:37.253Z,100.00
2023-02-24T18:14:06.066Z,100.00
2023-02-24T18:16:33.619Z,100.00
2023-02-24T18:21:49.665Z,100.00
2023-02-24T18:24:17.205Z,100.00
2023-02-24T18:26:44.655Z,100.00
2023-02-24T18:29:13.473Z,100.00
2023-02-24T18:31:41.398Z,100.00
2023-02-24T18:34:08.952Z,100.00
2023-02-24T18:36:36.391Z,100.00
2023-02-24T18:39:04.362Z,100.00
2023-02-24T18:41:31.924Z,100.00
2023-02-24T18:43:59.790Z,100.00
2023-02-24T18:46:28.720Z,100.00
2023-02-24T18:49:09.056Z,100.00
2023-02-24T18:51:36.762Z,100.00
2023-02-24T18:54:04.906Z,100.00
2023-02-24T18:56:34.634Z,100.00
2023-02-24T18:59:03.043Z,100.00
2023-02-24T19:01:33.588Z,100.00
2023-02-24T19:04:01.681Z,100.00
2023-02-24T19:09:21.364Z,100.00
2023-02-24T19:11:49.377Z,100.00
2023-02-24T19:14:16.975Z,100.00
2023-02-24T19:19:49.543Z,100.00
2023-02-24T19:25:19.706Z,100.00
2023-02-24T19:27:48.067Z,100.00
2023-02-24T19:30:16.239Z,100.00
2023-02-24T19:32:43.771Z,100.00
2023-02-24T19:35:13.502Z,100.00
2023-02-24T19:40:52.270Z,100.00
2023-02-24T19:43:19.750Z,100.00
2023-02-24T19:45:47.175Z,100.00
2023-02-24T19:48:14.653Z,100.00
2023-02-24T19:50:43.480Z,100.00
2023-02-24T19:53:10.941Z,100.00
2023-02-24T19:55:38.513Z,100.00
2023-02-24T19:58:05.914Z,100.00
2023-02-24T20:00:33.384Z,100.00
2023-02-24T20:06:05.541Z,100.00
2023-02-24T20:08:35.339Z,100.00
2023-02-24T20:11:03.866Z,100.00
2023-02-24T20:13:31.997Z,100.00
2023-02-24T20:16:06.998Z,100.00
2023-02-24T20:18:34.610Z,100.00
2023-02-24T20:24:11.147Z,100.00
2023-02-24T20:29:41.676Z,100.00
2023-02-24T20:32:09.482Z,100.00
2023-02-24T20:34:38.271Z,100.00
2023-02-24T20:37:06.471Z,100.00
2023-02-24T20:42:38.060Z,100.00
2023-02-24T20:45:07.874Z,100.00
2023-02-24T20:47:35.337Z,100.00
2023-02-24T20:50:03.058Z,100.00
2023-02-24T20:55:28.057Z,100.00
2023-02-24T20:57:56.850Z,100.00
2023-02-24T21:03:26.650Z,100.00
2023-02-24T21:06:04.518Z,100.00
2023-02-24T21:08:36.399Z,100.00
2023-02-24T21:14:08.009Z,100.00
2023-02-24T21:16:36.166Z,100.00
2023-02-24T21:19:03.595Z,100.00
2023-02-24T21:21:31.128Z,100.00
2023-02-24T21:26:47.272Z,100.00
2023-02-24T21:29:16.307Z,100.00
2023-02-24T21:31:44.000Z,100.00
2023-02-24T21:34:11.985Z,100.00
2023-02-24T21:36:39.471Z,100.00
2023-02-24T21:39:07.331Z,100.00
2023-02-24T21:41:35.580Z,100.00
2023-02-24T21:44:03.726Z,100.00
2023-02-24T21:46:32.528Z,100.00
2023-02-24T21:49:00.799Z,100.00
2023-02-24T21:51:29.072Z,100.00
2023-02-24T21:53:57.336Z,100.00
2023-02-24T21:56:26.972Z,100.00
2023-02-24T21:58:57.488Z,100.00
2023-02-24T22:01:26.961Z,100.00
2023-02-24T22:03:56.390Z,100.00
2023-02-24T22:06:25.960Z,100.00
2023-02-24T22:08:53.676Z,100.00
2023-02-24T22:11:22.454Z,100.00
2023-02-24T22:13:50.171Z,100.00
2023-02-24T22:16:22.427Z,100.00
2023-02-24T22:18:50.961Z,100.00
2023-02-24T22:21:21.335Z,100.00
2023-02-24T22:23:50.248Z,100.00
2023-02-24T22:26:18.588Z,100.00
2023-02-24T22:28:47.609Z,100.00
2023-02-24T22:31:17.053Z,100.00
2023-02-24T22:33:45.417Z,100.00
2023-02-24T22:36:14.411Z,100.00
2023-02-24T22:38:45.429Z,100.00
2023-02-24T22:41:14.515Z,100.00
2023-02-24T22:43:42.553Z,100.00
2023-02-24T22:46:14.191Z,100.00
2023-02-24T22:51:45.586Z,100.00
2023-02-24T22:54:14.432Z,100.00
2023-02-24T22:56:41.914Z,100.00
2023-02-24T22:59:09.379Z,100.00
2023-02-24T23:04:39.694Z,100.00
2023-02-24T23:07:07.118Z,100.00
2023-02-24T23:09:35.908Z,100.00
2023-02-24T23:14:51.858Z,100.00
2023-02-24T23:17:19.320Z,100.00
2023-02-24T23:19:46.784Z,100.00
2023-02-24T23:22:14.631Z,100.00
2023-02-24T23:24:43.394Z,100.00
2023-02-24T23:27:10.916Z,100.00
2023-02-24T23:29:38.370Z,100.00
2023-02-24T23:32:06.058Z,100.00
2023-02-24T23:34:33.699Z,100.00
2023-02-24T23:37:01.139Z,100.00
2023-02-24T23:39:28.867Z,100.00
2023-02-24T23:41:57.879Z,100.00
2023-02-24T23:44:25.455Z,100.00
2023-02-24T23:46:52.920Z,100.00
2023-02-24T23:49:20.331Z,100.00
2023-02-24T23:51:49.095Z,100.00
2023-02-24T23:54:16.834Z,100.00
2023-02-24T23:59:48.024Z,100.00
